HTIR/IRI METAR and TAF weather

Enter ICAO airport designator
Station Type Date Time Source
HTIR METAR 2021/09/16 19:00 UTC NOAA

HTIR 161900Z 00000KT 9999 FEW022 19/14 Q1019


Station Type Date Time Source
HTIR Decoded METAR 2021/09/16 19:00 UTC NOAA

Iringa, Tanzania (HTIR) 07-40S 035-45E 1428M
Sep 16, 2021 - 03:00 PM EDT / 2021.09.16 1900 UTC
Wind: Calm:0
Visibility: greater than 7 mile(s):0
Sky conditions: mostly clear
Temperature: 66 F (19 C)
Dew Point: 57 F (14 C)
Relative Humidity: 72%
Pressure (altimeter): 30.09 in. Hg (1019 hPa)
ob: HTIR 161900Z 00000KT 9999 FEW022 19/14 Q1019
cycle: 19

Station Type Date Time Source
HTIR TAF UTC NOAA

Error!

Example: see airport list